Time;durP1;ratioP1;P1;durP2;ratioP2;P2;SDS_P1;SDS_P2;PMS_P1;PMS_P2;Temp;Humidity;BMP_temperature;BMP_pressure;BME280_temperature;BME280_humidity;BME280_pressure;Samples;Min_cycle;Max_cycle;Signal;HPM_P1;HPM_P2
2022/03/20 00:00:43;;;;;;;1.77;0.93;;;20.50;33.90;;;;;;5093568;28;20131;-85
2022/03/20 00:03:10;;;;;;;1.00;0.80;;;20.50;33.90;;;;;;5093462;28;20048;-85
2022/03/20 00:05:38;;;;;;;1.10;1.00;;;20.50;33.80;;;;;;5075474;28;20079;-85
2022/03/20 00:08:08;;;;;;;1.13;0.93;;;20.60;33.90;;;;;;5093392;28;20063;-85
2022/03/20 00:10:35;;;;;;;0.90;0.88;;;20.60;33.90;;;;;;5092004;28;20062;-85
2022/03/20 00:13:02;;;;;;;1.20;1.00;;;20.60;33.90;;;;;;5075170;28;20048;-85
2022/03/20 00:15:30;;;;;;;0.85;0.82;;;20.60;33.90;;;;;;5093371;28;20047;-85
2022/03/20 00:17:57;;;;;;;1.30;1.10;;;20.50;33.80;;;;;;5093281;28;20052;-85
2022/03/20 00:20:22;;;;;;;1.08;0.90;;;20.50;33.80;;;;;;5093070;28;20059;-85
2022/03/20 00:22:48;;;;;;;1.52;1.00;;;20.50;33.80;;;;;;5093112;28;20056;-85
2022/03/20 00:25:13;;;;;;;1.00;0.90;;;20.60;33.90;;;;;;5092756;28;20056;-85
2022/03/20 00:27:39;;;;;;;0.80;0.80;;;20.50;33.80;;;;;;5092869;28;20066;-85
2022/03/20 00:30:06;;;;;;;1.30;1.00;;;20.50;33.80;;;;;;5092793;28;20120;-85
2022/03/20 00:32:32;;;;;;;1.35;0.90;;;20.50;33.80;;;;;;5092804;28;20052;-86
2022/03/20 00:34:59;;;;;;;1.48;1.10;;;20.50;33.80;;;;;;5093051;28;20081;-85
2022/03/20 00:37:27;;;;;;;1.02;0.90;;;20.60;33.90;;;;;;5074554;28;20526;-85
2022/03/20 00:39:52;;;;;;;1.13;1.00;;;20.60;33.90;;;;;;5073991;28;20178;-85
2022/03/20 00:42:18;;;;;;;1.45;1.20;;;20.50;33.80;;;;;;5074729;28;20139;-84
2022/03/20 00:44:43;;;;;;;1.10;0.80;;;20.60;33.90;;;;;;5093193;28;20051;-85
2022/03/20 00:47:09;;;;;;;2.63;1.10;;;20.50;33.80;;;;;;5074637;28;20059;-85
2022/03/20 00:49:35;;;;;;;3.85;1.00;;;20.50;33.90;;;;;;5074904;28;20440;-85
2022/03/20 00:52:01;;;;;;;1.55;1.02;;;20.60;33.90;;;;;;5074712;28;20058;-85
2022/03/20 00:54:27;;;;;;;1.10;1.00;;;20.50;33.80;;;;;;5074538;28;20523;-85
2022/03/20 00:56:52;;;;;;;1.63;1.13;;;20.60;33.90;;;;;;5074505;28;20117;-85
2022/03/20 00:59:18;;;;;;;0.98;0.82;;;20.60;33.90;;;;;;5092625;28;20131;-85
2022/03/20 01:01:45;;;;;;;0.98;0.70;;;20.60;33.90;;;;;;5092558;28;20051;-85
2022/03/20 01:04:10;;;;;;;1.80;1.10;;;20.60;33.90;;;;;;5074463;28;20083;-86
2022/03/20 01:06:36;;;;;;;1.17;0.98;;;20.50;33.80;;;;;;5075053;28;20435;-85
2022/03/20 01:09:02;;;;;;;0.90;0.90;;;20.60;33.90;;;;;;5074097;28;20058;-85
2022/03/20 01:11:28;;;;;;;1.33;1.02;;;20.60;33.90;;;;;;5073605;28;20452;-85
2022/03/20 01:13:55;;;;;;;0.98;0.88;;;20.50;33.80;;;;;;5092466;28;20055;-85
2022/03/20 01:16:21;;;;;;;1.10;1.00;;;20.50;33.80;;;;;;5092842;28;20059;-85
2022/03/20 01:18:47;;;;;;;1.20;0.88;;;20.60;33.90;;;;;;5074220;28;20449;-85
2022/03/20 01:21:13;;;;;;;1.15;1.00;;;20.60;34.10;;;;;;5057490;28;20052;-85
2022/03/20 01:23:39;;;;;;;1.17;0.98;;;20.50;33.80;;;;;;5092325;28;20081;-85
2022/03/20 01:26:04;;;;;;;1.58;1.00;;;20.50;33.80;;;;;;5092368;28;20052;-85
2022/03/20 01:28:30;;;;;;;0.82;0.75;;;20.60;33.90;;;;;;5073938;28;20888;-85
2022/03/20 01:30:56;;;;;;;0.80;0.80;;;20.60;33.90;;;;;;5074127;28;20518;-85
2022/03/20 01:33:22;;;;;;;1.58;0.93;;;20.50;33.80;;;;;;5092376;28;20052;-85
2022/03/20 01:35:48;;;;;;;1.05;0.95;;;20.60;34.40;;;;;;5074646;28;20098;-85
2022/03/20 01:38:20;;;;;;;1.77;1.10;;;20.50;33.80;;;;;;5095901;28;20052;-86
2022/03/20 01:40:46;;;;;;;1.40;1.05;;;20.60;33.90;;;;;;5095804;28;20605;-85
2022/03/20 01:43:12;;;;;;;1.15;0.88;;;20.60;33.80;;;;;;5095704;28;20076;-85
2022/03/20 01:45:38;;;;;;;1.60;1.10;;;20.60;33.90;;;;;;5077591;28;20052;-85
2022/03/20 01:48:04;;;;;;;0.93;0.85;;;20.60;33.80;;;;;;5095599;28;20116;-85
2022/03/20 01:50:32;;;;;;;0.80;0.80;;;20.50;33.80;;;;;;5095424;28;20086;-85
2022/03/20 01:52:59;;;;;;;1.35;1.10;;;20.60;33.80;;;;;;5095630;28;20063;-85
2022/03/20 01:55:26;;;;;;;1.05;0.90;;;20.60;33.80;;;;;;5077324;28;20052;-85
2022/03/20 01:57:54;;;;;;;0.98;0.90;;;20.50;33.70;;;;;;5095235;28;20071;-85
2022/03/20 02:00:21;;;;;;;2.92;1.40;;;20.60;33.80;;;;;;5095225;28;20052;-85
2022/03/20 02:02:47;;;;;;;3.38;0.80;;;20.50;33.80;;;;;;5075977;28;20454;-85
2022/03/20 02:05:13;;;;;;;1.33;0.90;;;20.60;33.80;;;;;;5095225;28;20048;-84
2022/03/20 02:07:40;;;;;;;1.45;1.10;;;20.60;33.80;;;;;;5093436;28;20054;-86
2022/03/20 02:10:07;;;;;;;1.05;0.95;;;20.60;33.80;;;;;;5095054;28;20052;-85
2022/03/20 02:12:35;;;;;;;1.50;1.08;;;20.50;33.80;;;;;;5058754;28;20449;-85
2022/03/20 02:15:02;;;;;;;1.00;0.90;;;20.50;33.80;;;;;;5095226;28;20083;-85
2022/03/20 02:17:31;;;;;;;1.25;1.00;;;20.60;33.80;;;;;;5095213;28;20048;-85
2022/03/20 02:19:58;;;;;;;1.42;1.10;;;20.50;33.80;;;;;;5076981;28;20400;-85
2022/03/20 02:22:24;;;;;;;1.00;0.90;;;20.60;33.80;;;;;;5077575;28;20052;-85
2022/03/20 02:24:51;;;;;;;1.05;0.95;;;20.60;33.80;;;;;;5075444;28;20060;-85
2022/03/20 02:27:23;;;;;;;1.10;1.00;;;20.50;33.70;;;;;;5095063;28;20048;-85
2022/03/20 02:29:49;;;;;;;1.42;1.10;;;20.60;33.80;;;;;;5095076;28;20047;-85
2022/03/20 02:32:18;;;;;;;1.30;1.20;;;20.50;33.70;;;;;;5077021;28;20055;-85
2022/03/20 02:34:48;;;;;;;2.38;1.30;;;20.60;33.80;;;;;;5060202;28;20472;-85
2022/03/20 02:37:17;;;;;;;1.20;1.10;;;20.50;33.70;;;;;;5076704;28;20104;-85
2022/03/20 02:39:43;;;;;;;2.20;1.23;;;20.60;33.80;;;;;;5094696;28;20044;-85
2022/03/20 02:42:09;;;;;;;1.10;1.00;;;20.60;33.80;;;;;;5076534;28;20055;-86
2022/03/20 02:45:00;;;;;;;1.10;1.00;;;20.50;33.70;;;;;;5094844;28;20052;-85
2022/03/20 02:47:30;;;;;;;1.35;1.20;;;20.60;33.80;;;;;;5093279;28;20052;-85
2022/03/20 02:50:03;;;;;;;1.52;1.23;;;20.50;33.70;;;;;;5094671;28;20505;-85
2022/03/20 02:52:41;;;;;;;1.33;1.20;;;20.50;33.80;;;;;;5095043;28;20060;-85
2022/03/20 02:55:07;;;;;;;1.75;1.30;;;20.50;33.70;;;;;;5075155;28;20087;-85
2022/03/20 02:57:34;;;;;;;1.30;1.20;;;20.60;33.80;;;;;;5094188;28;20055;-85
2022/03/20 03:00:04;;;;;;;1.30;1.20;;;20.50;34.30;;;;;;5094434;28;20052;-86
2022/03/20 03:02:42;;;;;;;1.15;1.05;;;20.50;33.70;;;;;;5094054;28;20438;-85
2022/03/20 03:05:08;;;;;;;1.13;1.02;;;20.50;33.70;;;;;;5094289;28;20135;-85
2022/03/20 03:10:55;;;;;;;1.33;1.23;;;20.50;33.70;;;;;;5074929;28;20079;-85
2022/03/20 03:13:10;;;;;;;1.25;1.15;;;20.50;33.70;;;;;;5094318;28;20560;-85
2022/03/20 03:15:35;;;;;;;1.50;1.40;;;20.50;33.70;;;;;;5059456;28;20056;-85
2022/03/20 03:18:03;;;;;;;1.70;1.42;;;20.50;33.70;;;;;;5074218;28;20052;-86
2022/03/20 03:20:30;;;;;;;1.77;1.40;;;20.50;33.70;;;;;;5092903;28;20056;-85
2022/03/20 03:22:56;;;;;;;1.90;1.30;;;20.50;33.60;;;;;;5094129;28;20503;-85
2022/03/20 03:25:23;;;;;;;1.30;1.20;;;20.50;33.70;;;;;;5094147;28;20131;-85
2022/03/20 03:27:49;;;;;;;3.10;1.25;;;20.50;33.70;;;;;;5093875;28;20173;-86
2022/03/20 03:30:15;;;;;;;1.45;1.23;;;20.50;33.60;;;;;;5093898;28;20058;-85
2022/03/20 03:32:42;;;;;;;2.20;1.45;;;20.50;33.60;;;;;;5093863;28;20135;-85
2022/03/20 03:37:53;;;;;;;2.70;1.70;;;20.50;33.60;;;;;;5093930;28;20044;-85
2022/03/20 03:40:18;;;;;;;1.88;1.63;;;20.50;33.60;;;;;;5073597;28;20412;-85
2022/03/20 03:42:44;;;;;;;1.38;1.13;;;20.50;33.60;;;;;;5075194;28;20070;-85
2022/03/20 03:45:10;;;;;;;1.60;1.50;;;20.50;33.60;;;;;;5093754;28;20080;-85
2022/03/20 03:47:36;;;;;;;2.55;1.55;;;20.50;33.60;;;;;;5093491;28;20059;-86
2022/03/20 03:50:02;;;;;;;1.70;1.50;;;20.50;33.60;;;;;;5093531;28;20055;-86
2022/03/20 03:52:28;;;;;;;1.38;1.27;;;20.50;33.60;;;;;;5074015;28;20059;-86
2022/03/20 03:54:53;;;;;;;1.80;1.33;;;20.50;33.60;;;;;;5093668;28;20086;-85
2022/03/20 03:57:19;;;;;;;1.58;1.30;;;20.50;33.60;;;;;;5093637;28;20109;-85
2022/03/20 03:59:45;;;;;;;2.10;1.65;;;20.50;33.60;;;;;;5075509;28;20059;-85
2022/03/20 04:02:11;;;;;;;1.88;1.50;;;20.50;33.60;;;;;;5093593;28;20058;-86
2022/03/20 04:04:38;;;;;;;2.15;1.67;;;20.50;33.60;;;;;;5093514;28;20385;-85
2022/03/20 04:07:04;;;;;;;1.63;1.40;;;20.50;33.60;;;;;;5075241;28;20097;-85
2022/03/20 04:09:29;;;;;;;1.60;1.45;;;20.50;33.60;;;;;;5058355;28;20498;-85
2022/03/20 04:11:55;;;;;;;1.92;1.52;;;20.50;33.60;;;;;;5093364;28;20127;-85
2022/03/20 04:14:22;;;;;;;1.63;1.52;;;20.50;33.60;;;;;;5075646;28;20059;-85
2022/03/20 04:16:48;;;;;;;1.40;1.30;;;20.50;33.60;;;;;;5093193;28;20131;-85
2022/03/20 04:19:13;;;;;;;1.70;1.60;;;20.50;33.50;;;;;;5073217;28;20105;-85
2022/03/20 04:21:39;;;;;;;2.42;1.92;;;20.50;33.80;;;;;;5075104;28;20069;-85
2022/03/20 04:24:07;;;;;;;1.42;1.33;;;20.50;33.50;;;;;;5093224;28;20058;-85
2022/03/20 04:26:34;;;;;;;2.72;1.60;;;20.50;33.60;;;;;;5093160;28;20407;-86
2022/03/20 04:28:59;;;;;;;2.90;1.75;;;20.50;33.50;;;;;;5093018;28;20490;-85
2022/03/20 04:31:25;;;;;;;1.58;1.48;;;20.50;33.50;;;;;;5074887;28;20056;-85
2022/03/20 04:33:54;;;;;;;1.73;1.58;;;20.50;33.50;;;;;;5092986;28;20329;-85
2022/03/20 04:36:24;;;;;;;1.80;1.70;;;20.40;33.50;;;;;;5092924;28;20509;-85
2022/03/20 04:38:54;;;;;;;2.28;1.60;;;20.50;33.50;;;;;;5093008;28;20177;-85
2022/03/20 04:41:21;;;;;;;1.67;1.58;;;20.50;33.50;;;;;;5074810;28;20056;-85
2022/03/20 04:43:48;;;;;;;1.92;1.73;;;20.50;33.50;;;;;;5073545;28;20052;-85
2022/03/20 04:46:14;;;;;;;1.70;1.60;;;20.50;33.60;;;;;;5091946;28;20056;-85
2022/03/20 04:59:38;;;;;;;2.05;1.45;;;20.50;33.50;;;;;;5074133;28;20044;-85
2022/03/20 05:02:04;;;;;;;1.63;1.52;;;20.40;33.50;;;;;;5092777;28;20052;-85
2022/03/20 05:04:29;;;;;;;2.00;1.77;;;20.50;33.50;;;;;;5057632;28;20113;-86
2022/03/20 05:06:55;;;;;;;1.83;1.67;;;20.40;33.50;;;;;;5073896;28;20110;-85
2022/03/20 05:14:49;;;;;;;1.73;1.60;;;20.50;33.50;;;;;;5096561;28;20032;-85
2022/03/20 05:17:14;;;;;;;2.33;1.92;;;20.40;33.50;;;;;;5077799;28;20058;-85
2022/03/20 05:19:41;;;;;;;6.45;1.80;;;20.50;33.50;;;;;;5095948;28;20048;-85
2022/03/20 05:22:10;;;;;;;2.33;1.77;;;20.50;33.50;;;;;;5078033;28;20056;-86
2022/03/20 05:24:37;;;;;;;2.40;1.88;;;20.50;33.50;;;;;;5096060;28;20505;-85
2022/03/20 05:27:04;;;;;;;2.08;1.85;;;20.50;33.50;;;;;;5095056;28;20056;-85
2022/03/20 05:29:30;;;;;;;2.00;1.75;;;20.50;33.50;;;;;;5077643;28;20484;-85
2022/03/20 05:31:55;;;;;;;3.33;2.00;;;20.40;33.40;;;;;;5096157;28;20130;-85
2022/03/20 05:34:22;;;;;;;2.40;2.20;;;20.50;33.50;;;;;;5077729;28;20052;-85
2022/03/20 05:36:49;;;;;;;2.03;1.88;;;20.50;33.40;;;;;;5077489;28;20048;-85
2022/03/20 05:39:16;;;;;;;2.10;1.70;;;20.50;33.40;;;;;;5095797;28;20040;-85
2022/03/20 05:41:48;;;;;;;2.22;1.88;;;20.40;33.30;;;;;;5095832;28;20055;-85
2022/03/20 05:44:21;;;;;;;2.10;1.90;;;20.50;33.30;;;;;;5077428;28;20484;-85
2022/03/20 05:46:51;;;;;;;2.28;2.08;;;20.50;33.30;;;;;;5077474;28;20052;-85
2022/03/20 05:49:18;;;;;;;2.80;2.10;;;20.60;33.20;;;;;;5095696;28;20471;-85
2022/03/20 05:51:46;;;;;;;2.22;2.00;;;20.60;33.30;;;;;;5077895;28;20044;-85
2022/03/20 05:54:13;;;;;;;2.95;1.90;;;20.60;33.00;;;;;;5095594;28;20067;-85
2022/03/20 05:59:23;;;;;;;2.50;2.00;;;20.80;32.80;;;;;;5093715;28;20052;-85
2022/03/20 06:01:51;;;;;;;3.72;2.63;;;20.90;32.80;;;;;;5095426;28;20052;-85
2022/03/20 06:04:18;;;;;;;2.70;2.03;;;20.90;32.90;;;;;;5077215;28;20064;-86
2022/03/20 06:06:44;;;;;;;2.17;1.90;;;21.00;32.60;;;;;;5095349;28;20492;-86
2022/03/20 06:09:10;;;;;;;2.42;2.22;;;21.00;32.60;;;;;;5094966;28;20040;-85
2022/03/20 06:11:35;;;;;;;2.10;1.90;;;21.00;32.40;;;;;;5095521;28;20062;-85
2022/03/20 06:14:03;;;;;;;2.83;2.35;;;21.10;32.30;;;;;;5077005;28;20058;-85
2022/03/20 06:16:29;;;;;;;2.88;2.00;;;21.10;32.20;;;;;;5077049;28;20056;-85
2022/03/20 06:18:55;;;;;;;2.70;2.15;;;21.10;32.20;;;;;;5095032;28;20044;-85
2022/03/20 06:21:22;;;;;;;2.30;2.10;;;21.20;32.30;;;;;;5076605;28;20048;-85
2022/03/20 06:23:49;;;;;;;2.90;2.30;;;21.20;32.10;;;;;;5095686;28;20044;-85
2022/03/20 06:26:16;;;;;;;2.55;2.28;;;21.30;32.20;;;;;;5095146;28;20052;-85
2022/03/20 06:28:42;;;;;;;3.80;2.17;;;21.30;32.10;;;;;;5076528;28;20072;-85
2022/03/20 06:31:10;;;;;;;2.20;2.00;;;21.40;32.10;;;;;;5095022;28;20128;-85
2022/03/20 06:33:37;;;;;;;3.72;2.40;;;21.40;32.00;;;;;;5094981;28;20530;-85
2022/03/20 06:36:03;;;;;;;2.22;2.00;;;21.50;32.00;;;;;;5076683;28;20389;-86
2022/03/20 06:38:30;;;;;;;2.97;2.30;;;21.50;31.90;;;;;;5076428;28;20446;-85
2022/03/20 06:40:59;;;;;;;2.53;2.20;;;21.60;31.90;;;;;;5095127;28;20081;-85
2022/03/20 06:43:24;;;;;;;3.45;2.20;;;21.60;31.80;;;;;;5076551;28;20438;-85
2022/03/20 06:45:52;;;;;;;3.67;2.35;;;21.60;31.80;;;;;;5094691;28;20081;-85
2022/03/20 06:48:19;;;;;;;3.13;2.42;;;21.60;31.70;;;;;;5094754;28;20101;-85
2022/03/20 06:50:45;;;;;;;3.53;2.47;;;21.70;31.70;;;;;;5076511;28;20483;-86
2022/03/20 06:53:11;;;;;;;2.63;2.20;;;21.70;31.70;;;;;;5076398;28;20135;-85
2022/03/20 06:55:37;;;;;;;2.33;2.10;;;21.70;31.60;;;;;;5094529;28;20454;-85
2022/03/20 06:58:04;;;;;;;2.38;2.10;;;21.80;31.70;;;;;;5094488;28;20052;-85
2022/03/20 07:00:32;;;;;;;2.90;2.28;;;21.80;31.60;;;;;;5094506;28;20086;-85
2022/03/20 07:03:06;;;;;;;3.17;2.63;;;21.80;31.60;;;;;;5076227;28;20083;-85
2022/03/20 07:05:33;;;;;;;2.30;2.10;;;21.80;31.50;;;;;;5094538;28;20060;-86
2022/03/20 07:08:02;;;;;;;2.20;2.00;;;21.80;31.50;;;;;;5094283;28;20074;-85
2022/03/20 07:10:29;;;;;;;2.38;2.17;;;21.90;31.60;;;;;;5076100;28;20079;-85
2022/03/20 07:15:40;;;;;;;2.20;1.92;;;21.90;31.50;;;;;;5094236;28;20058;-85
2022/03/20 07:18:10;;;;;;;3.50;2.45;;;21.90;31.50;;;;;;5094421;28;20055;-85
2022/03/20 07:20:39;;;;;;;2.50;2.30;;;21.90;31.40;;;;;;5076364;28;20058;-85
2022/03/20 07:23:09;;;;;;;3.20;2.40;;;22.00;31.40;;;;;;5076132;28;20052;-85
2022/03/20 07:31:06;;;;;;;3.30;2.42;;;22.10;31.20;;;;;;5094053;28;20051;-85
2022/03/20 07:33:32;;;;;;;2.58;2.38;;;22.10;31.10;;;;;;5093109;28;20492;-85
2022/03/20 07:35:59;;;;;;;2.72;2.20;;;22.20;31.10;;;;;;5075772;28;20059;-85
2022/03/20 07:38:26;;;;;;;2.35;2.15;;;22.20;31.10;;;;;;5093496;28;20048;-85
2022/03/20 07:40:51;;;;;;;2.35;2.15;;;22.20;31.10;;;;;;5094026;28;20055;-85
2022/03/20 07:43:18;;;;;;;3.60;2.40;;;22.20;31.10;;;;;;5093870;28;20151;-85
2022/03/20 07:45:44;;;;;;;2.67;2.20;;;22.20;31.10;;;;;;5074560;28;20135;-85
2022/03/20 07:48:10;;;;;;;2.53;1.90;;;22.10;31.10;;;;;;5093844;28;20059;-85
2022/03/20 07:50:35;;;;;;;2.88;2.53;;;22.10;31.10;;;;;;5093975;28;20056;-85
2022/03/20 07:53:01;;;;;;;2.40;2.20;;;22.10;31.10;;;;;;5093763;28;20079;-85
2022/03/20 07:55:28;;;;;;;2.42;2.22;;;22.10;30.70;;;;;;5074053;28;20052;-85
2022/03/20 07:57:55;;;;;;;2.40;2.20;;;22.10;31.20;;;;;;5093341;28;20059;-85
2022/03/20 08:00:22;;;;;;;2.55;2.30;;;22.00;31.20;;;;;;5093892;28;20475;-85
2022/03/20 08:02:48;;;;;;;2.95;2.28;;;22.00;31.20;;;;;;5093493;28;20135;-85
2022/03/20 08:05:15;;;;;;;2.78;2.30;;;22.00;31.30;;;;;;5093092;28;20058;-85
2022/03/20 08:07:41;;;;;;;2.63;2.17;;;21.90;31.20;;;;;;5093451;28;20058;-86
2022/03/20 08:10:12;;;;;;;4.07;2.28;;;21.90;31.30;;;;;;5074119;28;20057;-85
2022/03/20 08:12:38;;;;;;;;;;;21.90;31.40;;;;;;5074587;28;20048;-85
2022/03/20 08:15:05;;;;;;;2.13;2.00;;;21.90;31.40;;;;;;5075263;28;19922;-85
2022/03/20 08:17:31;;;;;;;3.40;2.60;;;21.80;31.40;;;;;;5092089;28;20143;-85
2022/03/20 08:19:58;;;;;;;2.78;2.33;;;21.80;31.40;;;;;;5058919;28;20047;-85
2022/03/20 08:22:25;;;;;;;2.92;2.40;;;21.80;31.50;;;;;;5093234;28;20054;-85
2022/03/20 08:24:51;;;;;;;2.50;2.30;;;21.80;31.50;;;;;;5093259;28;20452;-85
2022/03/20 08:27:19;;;;;;;3.72;2.75;;;21.70;31.50;;;;;;5074884;28;20147;-85
2022/03/20 08:29:44;;;;;;;2.97;2.67;;;21.70;31.60;;;;;;5093144;28;20070;-85
2022/03/20 08:32:10;;;;;;;2.90;2.60;;;21.70;31.60;;;;;;5075007;28;20048;-85
2022/03/20 08:34:36;;;;;;;2.53;2.30;;;21.60;31.60;;;;;;5093142;28;20060;-85
2022/03/20 08:37:01;;;;;;;3.05;2.40;;;21.60;31.60;;;;;;5093042;28;20060;-85
2022/03/20 08:39:27;;;;;;;2.97;2.50;;;21.60;31.60;;;;;;5092826;28;20056;-85
2022/03/20 08:41:53;;;;;;;2.40;2.20;;;21.50;31.70;;;;;;5093541;28;20135;-85
2022/03/20 08:44:18;;;;;;;3.67;3.00;;;21.50;31.80;;;;;;5074636;28;20081;-85
2022/03/20 08:46:44;;;;;;;4.32;2.75;;;21.50;31.80;;;;;;5074698;28;20060;-85
2022/03/20 08:49:10;;;;;;;2.67;2.47;;;21.40;31.80;;;;;;5092767;28;20044;-85
2022/03/20 08:51:39;;;;;;;3.33;3.03;;;21.40;31.80;;;;;;5092852;28;20056;-85
2022/03/20 08:54:05;;;;;;;2.45;2.25;;;21.40;31.90;;;;;;5092723;28;20055;-85
2022/03/20 08:56:31;;;;;;;3.40;2.60;;;21.40;31.90;;;;;;5092831;28;20059;-85
2022/03/20 08:58:57;;;;;;;2.28;2.08;;;21.30;31.90;;;;;;5092713;28;20154;-85
2022/03/20 09:01:22;;;;;;;2.70;2.50;;;21.30;31.90;;;;;;5074453;28;20052;-85
2022/03/20 09:03:50;;;;;;;3.08;2.53;;;21.30;31.90;;;;;;5092599;28;20054;-85
2022/03/20 09:06:24;;;;;;;3.33;2.70;;;21.30;32.00;;;;;;5092687;28;20066;-85
2022/03/20 09:08:51;;;;;;;3.00;2.70;;;21.20;32.00;;;;;;5074505;28;20080;-85
2022/03/20 09:11:18;;;;;;;3.42;2.80;;;21.20;31.80;;;;;;5092513;28;20048;-85
2022/03/20 09:13:44;;;;;;;4.35;2.90;;;21.20;32.00;;;;;;5092616;28;20056;-85
2022/03/20 09:19:00;;;;;;;3.75;3.03;;;21.10;32.10;;;;;;5092777;28;20517;-85
2022/03/20 09:21:31;;;;;;;3.92;3.08;;;21.10;32.10;;;;;;5072707;28;20075;-85
2022/03/20 09:23:57;;;;;;;3.72;3.10;;;21.10;32.10;;;;;;5074397;28;20077;-85
2022/03/20 09:26:23;;;;;;;3.25;2.75;;;21.10;32.10;;;;;;5092198;28;20135;-85
2022/03/20 09:28:48;;;;;;;3.90;2.85;;;21.10;32.20;;;;;;5092023;28;20101;-85
2022/03/20 09:31:15;;;;;;;4.18;2.60;;;21.00;32.20;;;;;;5092466;28;20094;-85
2022/03/20 09:33:42;;;;;;;3.20;2.83;;;21.00;32.20;;;;;;5092344;28;20048;-85
2022/03/20 09:36:07;;;;;;;3.70;3.13;;;21.00;32.20;;;;;;5092473;28;20142;-85
2022/03/20 09:38:34;;;;;;;4.03;3.28;;;21.00;32.30;;;;;;5092125;28;20052;-85
2022/03/20 09:41:03;;;;;;;3.30;2.88;;;21.00;32.20;;;;;;5092187;28;20131;-85
2022/03/20 09:43:30;;;;;;;2.95;2.75;;;20.90;32.20;;;;;;5073914;28;20048;-85
2022/03/20 09:45:55;;;;;;;4.05;2.90;;;21.00;32.30;;;;;;5092348;28;20048;-86
2022/03/20 09:48:21;;;;;;;3.38;3.00;;;21.00;32.30;;;;;;5072927;28;20107;-85
2022/03/20 09:50:49;;;;;;;3.75;3.33;;;20.90;32.30;;;;;;5057126;28;20091;-85
2022/03/20 09:53:14;;;;;;;3.33;3.03;;;20.90;32.30;;;;;;5092117;28;20388;-85
2022/03/20 09:55:40;;;;;;;3.30;3.00;;;20.90;32.30;;;;;;5092020;28;20055;-85
2022/03/20 09:58:05;;;;;;;4.72;3.08;;;20.90;32.30;;;;;;5076862;28;20086;-85
2022/03/20 10:00:32;;;;;;;3.20;2.85;;;20.90;32.30;;;;;;5095460;28;20488;-85
2022/03/20 10:03:14;;;;;;;4.57;3.28;;;20.90;32.30;;;;;;5095719;28;20063;-85
2022/03/20 10:05:40;;;;;;;3.15;2.85;;;20.90;32.20;;;;;;5095502;28;20579;-85
2022/03/20 10:08:16;;;;;;;3.88;2.88;;;20.90;32.30;;;;;;5095434;28;20079;-85
2022/03/20 10:10:42;;;;;;;3.28;2.97;;;20.90;32.30;;;;;;5077450;28;20052;-84
2022/03/20 10:13:13;;;;;;;3.30;2.90;;;20.90;32.30;;;;;;5077120;28;20507;-85
2022/03/20 10:15:40;;;;;;;3.53;3.20;;;20.90;32.30;;;;;;5095232;28;20043;-85
2022/03/20 10:18:10;;;;;;;4.00;3.40;;;20.90;32.30;;;;;;5095274;28;20055;-86
2022/03/20 10:20:42;;;;;;;3.35;2.90;;;20.90;32.30;;;;;;5095091;28;20052;-85
2022/03/20 10:23:27;;;;;;;4.10;3.35;;;20.90;32.30;;;;;;5095073;28;20048;-85
2022/03/20 10:25:53;;;;;;;3.63;3.25;;;20.90;32.30;;;;;;5095155;28;20101;-85
2022/03/20 10:28:18;;;;;;;4.20;3.20;;;20.90;32.30;;;;;;5076876;28;20052;-85
2022/03/20 10:30:59;;;;;;;3.65;3.10;;;20.80;32.30;;;;;;5094917;28;20055;-85
2022/03/20 10:33:24;;;;;;;3.90;2.93;;;20.80;32.30;;;;;;5060070;28;20118;-84
2022/03/20 10:36:20;;;;;;;4.28;3.42;;;20.90;32.30;;;;;;5095036;28;20060;-85
2022/03/20 10:38:48;;;;;;;3.88;3.20;;;20.80;32.30;;;;;;5075893;28;20079;-85
2022/03/20 10:41:32;;;;;;;4.00;3.30;;;20.80;32.30;;;;;;5094862;28;20051;-85
2022/03/20 10:43:58;;;;;;;4.13;3.72;;;20.80;32.40;;;;;;5094701;28;20055;-85
2022/03/20 10:46:31;;;;;;;3.83;3.40;;;20.80;32.40;;;;;;5094838;28;20048;-84
2022/03/20 10:49:01;;;;;;;3.60;3.30;;;20.80;32.30;;;;;;5075331;28;20044;-85
2022/03/20 10:51:37;;;;;;;3.45;3.00;;;20.80;32.30;;;;;;5094786;28;20569;-85
2022/03/20 10:54:05;;;;;;;5.70;3.65;;;20.80;32.30;;;;;;5094669;28;20414;-85
2022/03/20 10:56:31;;;;;;;3.78;3.38;;;20.80;32.30;;;;;;5094561;28;20060;-85
2022/03/20 10:58:57;;;;;;;4.05;3.65;;;20.80;32.30;;;;;;5094244;28;20465;-85
2022/03/20 11:01:37;;;;;;;4.90;3.72;;;20.80;32.30;;;;;;5094600;28;20553;-85
2022/03/20 11:04:05;;;;;;;3.83;3.33;;;20.80;32.30;;;;;;5093516;28;20427;-85
2022/03/20 11:06:30;;;;;;;3.47;3.17;;;20.80;32.30;;;;;;5076146;28;20557;-84
2022/03/20 11:08:56;;;;;;;3.58;3.10;;;20.80;32.30;;;;;;5092940;28;20083;-85
2022/03/20 11:11:24;;;;;;;4.13;3.63;;;20.70;32.30;;;;;;5094578;28;20090;-85
2022/03/20 11:13:52;;;;;;;4.55;3.60;;;20.70;32.40;;;;;;5076171;28;20083;-85
2022/03/20 11:16:23;;;;;;;4.63;3.60;;;20.70;32.40;;;;;;5076368;28;20063;-85
2022/03/20 11:18:52;;;;;;;3.75;3.30;;;20.70;32.30;;;;;;5094491;28;20078;-85
2022/03/20 11:21:22;;;;;;;4.25;3.58;;;20.70;32.30;;;;;;5075943;28;20059;-84
2022/03/20 11:23:49;;;;;;;4.05;3.28;;;20.70;32.30;;;;;;5094105;28;20048;-85
2022/03/20 11:26:17;;;;;;;3.83;3.50;;;20.70;32.30;;;;;;5094195;28;20060;-85
2022/03/20 11:28:45;;;;;;;4.75;4.10;;;20.70;32.20;;;;;;5075650;28;20044;-85
2022/03/20 11:31:12;;;;;;;5.18;3.75;;;20.80;32.80;;;;;;5094157;28;20048;-85
2022/03/20 11:33:41;;;;;;;4.47;3.95;;;20.70;32.20;;;;;;5094011;28;20052;-85
2022/03/20 11:36:06;;;;;;;4.53;3.88;;;20.70;32.20;;;;;;5075191;28;20155;-84
2022/03/20 11:38:35;;;;;;;5.38;3.55;;;20.70;32.20;;;;;;5093899;28;20135;-85
2022/03/20 11:41:19;;;;;;;3.85;3.45;;;20.80;32.20;;;;;;5093884;28;20105;-85
2022/03/20 11:44:23;;;;;;;4.43;3.60;;;20.70;32.20;;;;;;5093868;28;20052;-85
2022/03/20 11:47:14;;;;;;;4.32;3.75;;;20.70;32.20;;;;;;5075704;28;20159;-85
2022/03/20 11:49:40;;;;;;;;;;;20.70;32.10;;;;;;5093714;28;20051;-85
2022/03/20 11:52:11;;;;;;;3.88;3.40;;;20.70;32.10;;;;;;5093781;28;19920;-85
2022/03/20 11:54:39;;;;;;;3.65;3.28;;;20.70;32.20;;;;;;5093629;28;20055;-85
2022/03/20 11:57:37;;;;;;;5.43;4.28;;;20.70;32.10;;;;;;5074344;28;20397;-85
2022/03/20 12:00:18;;;;;;;5.15;4.28;;;20.70;32.20;;;;;;5093464;28;20052;-84
2022/03/20 12:03:10;;;;;;;6.05;4.15;;;20.70;32.20;;;;;;5093527;28;20060;-85
2022/03/20 12:05:52;;;;;;;4.88;4.25;;;20.70;32.20;;;;;;5074193;28;20080;-85
2022/03/20 12:08:27;;;;;;;5.35;4.30;;;20.70;32.20;;;;;;5073724;28;20048;-85
2022/03/20 12:11:02;;;;;;;4.53;3.80;;;20.70;32.10;;;;;;5093445;28;20586;-85
2022/03/20 12:13:42;;;;;;;4.30;3.65;;;20.70;32.20;;;;;;5093397;28;20058;-84
2022/03/20 12:16:09;;;;;;;5.20;4.10;;;20.60;32.20;;;;;;5093687;28;20143;-85
2022/03/20 12:19:13;;;;;;;4.78;4.05;;;20.70;32.30;;;;;;5075350;28;20063;-85
2022/03/20 12:21:56;;;;;;;7.32;4.97;;;20.60;32.20;;;;;;5090647;28;20399;-85
2022/03/20 12:24:54;;;;;;;5.20;3.95;;;20.70;32.20;;;;;;5093263;28;20087;-85
2022/03/20 12:27:22;;;;;;;4.47;4.00;;;20.70;32.20;;;;;;5049769;28;20052;-84
2022/03/20 12:29:49;;;;;;;4.53;3.92;;;20.70;32.20;;;;;;5093280;28;20044;-85
2022/03/20 12:32:16;;;;;;;5.78;4.20;;;20.70;32.20;;;;;;5093081;28;20052;-85
2022/03/20 12:34:44;;;;;;;4.35;3.85;;;20.70;32.20;;;;;;5074833;28;20059;-85
2022/03/20 12:37:28;;;;;;;5.95;4.20;;;20.60;32.10;;;;;;5093011;28;20044;-84
2022/03/20 12:39:55;;;;;;;5.13;4.32;;;20.60;32.10;;;;;;5073303;28;20102;-85
2022/03/20 12:42:22;;;;;;;6.13;4.53;;;20.60;32.10;;;;;;5092966;28;20055;-85
2022/03/20 12:44:50;;;;;;;4.68;4.20;;;20.60;32.00;;;;;;5092883;28;20063;-85
2022/03/20 12:47:17;;;;;;;6.00;4.35;;;20.70;31.90;;;;;;5074975;28;20055;-85
2022/03/20 12:49:45;;;;;;;5.72;4.70;;;20.60;31.80;;;;;;5093140;28;20054;-85
2022/03/20 12:52:12;;;;;;;5.53;4.60;;;20.60;31.80;;;;;;5091682;28;20513;-84
2022/03/20 12:54:38;;;;;;;5.70;4.97;;;20.60;31.90;;;;;;5092683;28;20044;-84
2022/03/20 12:57:04;;;;;;;5.47;4.25;;;20.60;31.80;;;;;;5092698;28;20063;-82
2022/03/20 12:59:30;;;;;;;5.20;4.70;;;20.60;32.00;;;;;;5092756;28;20055;-84
2022/03/20 13:01:57;;;;;;;6.10;4.78;;;20.60;31.90;;;;;;5074524;28;20059;-85
2022/03/20 13:04:23;;;;;;;5.07;4.32;;;20.60;31.90;;;;;;5092580;28;20052;-84
2022/03/20 13:06:50;;;;;;;4.80;4.30;;;20.60;31.90;;;;;;5092668;28;20101;-84
2022/03/20 13:09:16;;;;;;;6.00;5.07;;;20.60;31.90;;;;;;5073154;28;20090;-85
2022/03/20 13:11:48;;;;;;;5.43;4.80;;;20.50;31.80;;;;;;5092669;28;20048;-85
2022/03/20 13:14:15;;;;;;;4.97;4.47;;;20.50;31.90;;;;;;5074485;28;20056;-84
2022/03/20 13:17:07;;;;;;;5.35;4.70;;;20.50;31.90;;;;;;5074510;28;20066;-85
2022/03/20 13:19:34;;;;;;;5.45;4.18;;;20.50;31.90;;;;;;5087646;28;20052;-85
2022/03/20 13:22:05;;;;;;;6.82;5.18;;;20.60;31.90;;;;;;5092552;28;20163;-85
2022/03/20 13:24:34;;;;;;;6.55;5.07;;;20.50;31.80;;;;;;5074590;28;20121;-85
2022/03/20 13:27:03;;;;;;;5.60;4.78;;;20.50;31.90;;;;;;5092759;28;20488;-84
2022/03/20 13:29:29;;;;;;;5.60;4.63;;;20.60;31.90;;;;;;5073985;28;20040;-85